CSAV Lonquen — A8OT2 — position and weather

sailwx.info

Track history (hours):
 
Tides and Currents Weather Stations Pressure Air Temp Water Temp Dewpoint Dewpoint Depression Visibility Wind Speed Wind Dir Waves Ship Positions

CSAV Lonquen

Last reported at 2018-Apr-03 05:46 UTC. Time now 2018-Apr-26 17:25 UTC.
Position N 01°14' E 103°25'.
Warning: this ship's position is 23 days out of date.

Length 261 m; draft 12.3 m.

Type: Ship (hazmat cat D). MMSI: 636018108.

Date/timePositionNaut miles runAvg speedWind from/ knotsBaromVisibWave heightAir tempDewpointWater temp
2018-Apr-03 05:46N 01°14' E 103°25'415.2
2018-Apr-03 05:30N 01°13' E 103°29'714.6
2018-Apr-03 05:00N 01°12' E 103°36'5 9.7
2018-Apr-03 04:31N 01°13' E 103°41'612.4
2018-Apr-03 04:00N 01°15' E 103°46'1 2.3
2018-Apr-03 03:30N 01°16' E 103°47'0 0.0
2018-Apr-03 02:58N 01°16' E 103°47'0 0.0
2018-Apr-03 02:28N 01°16' E 103°47'0 0.0
2018-Apr-03 01:58N 01°16' E 103°47'0 0.0
2018-Apr-03 01:28N 01°16' E 103°47'0 0.0
2018-Apr-03 00:52N 01°16' E 103°47'0 0.0
2018-Apr-03 00:28N 01°16' E 103°47'0 0.0
2018-Apr-02 23:58N 01°16' E 103°47'0 0.0
2018-Apr-02 23:25N 01°16' E 103°47'0 0.0
2018-Apr-02 22:58N 01°16' E 103°47'0 0.0
2018-Apr-02 22:28N 01°16' E 103°47'0 0.0
2018-Apr-02 21:58N 01°16' E 103°47'0 0.0
2018-Apr-02 21:28N 01°16' E 103°47'0 0.0
2018-Apr-02 20:58N 01°16' E 103°47'0 0.0
2018-Apr-02 20:28N 01°16' E 103°47'0 0.0
2018-Apr-02 19:58N 01°16' E 103°47'0 0.0
2018-Apr-02 19:28N 01°16' E 103°47'0 0.0
2018-Apr-02 18:58N 01°16' E 103°47'0 0.0
2018-Apr-02 18:28N 01°16' E 103°47'0 0.0
2018-Apr-02 17:58N 01°16' E 103°47'0 0.0
2018-Apr-02 17:28N 01°16' E 103°47'0 0.1
2018-Apr-02 17:00N 01°16' E 103°48'1 1.3
2018-Apr-02 16:30N 01°15' E 103°47'2 4.9
2018-Apr-02 16:00N 01°15' E 103°45'4 7.6
2018-Apr-02 15:30N 01°13' E 103°42'1 1.9
2018-Apr-02 15:00N 01°12' E 103°41'0 0.0
2018-Apr-02 14:30N 01°12' E 103°41'0 0.1
2018-Apr-02 13:54N 01°12' E 103°41'0 0.1
2018-Apr-02 13:30N 01°12' E 103°41'0 0.1
2018-Apr-02 13:00N 01°12' E 103°41'0 0.0
2018-Apr-02 12:30N 01°12' E 103°41'0 0.1
2018-Apr-02 12:00N 01°12' E 103°41'0 0.1
2018-Apr-02 11:30N 01°12' E 103°41'0 0.1
2018-Apr-02 11:00N 01°12' E 103°41'0 0.1
2018-Apr-02 10:30N 01°12' E 103°41'0 0.2
2018-Apr-02 10:00N 01°12' E 103°41'0 0.2
2018-Apr-02 09:30N 01°12' E 103°41'0 0.2
2018-Apr-02 08:57N 01°12' E 103°41'0 0.0
2018-Apr-02 08:30N 01°12' E 103°41'0 0.0
2018-Apr-02 07:57N 01°12' E 103°41'0 0.1
2018-Apr-02 07:30N 01°12' E 103°41'0 0.0
2018-Apr-02 06:57N 01°12' E 103°41'0 0.3
2018-Apr-02 06:30N 01°12' E 103°41'4 7.7
2018-Apr-02 06:00N 01°12' E 103°37'3 6.7
2018-Apr-02 05:30N 01°13' E 103°34'4 8.3
2018-Apr-02 04:59N 01°14' E 103°30'1 1.6
2018-Apr-02 04:30N 01°15' E 103°30'2 4.2
2018-Apr-02 03:59N 01°15' E 103°32'4 8.7
2018-Apr-02 03:31N 01°19' E 103°33'3 5.1
2018-Apr-02 03:01N 01°22' E 103°33'0 0.2
2018-Apr-02 02:05N 01°22' E 103°33'0 0.0
2018-Apr-02 01:44N 01°22' E 103°33'0 0.0
2018-Apr-02 01:23N 01°22' E 103°33'0 0.0
2018-Apr-02 00:53N 01°22' E 103°33'0 0.0
2018-Apr-02 00:20N 01°22' E 103°33'0 0.0
2018-Apr-01 23:59N 01°22' E 103°33'0 0.0
2018-Apr-01 23:11N 01°22' E 103°33'0 0.0
2018-Apr-01 22:26N 01°22' E 103°33'0 0.0
2018-Apr-01 21:17N 01°22' E 103°33'0 0.0
2018-Apr-01 17:50N 01°22' E 103°33'0 0.0
2018-Apr-01 17:20N 01°22' E 103°33'0 0.0
2018-Apr-01 14:35N 01°22' E 103°33'0 0.0
2018-Apr-01 14:14N 01°22' E 103°33'0 0.0
2018-Apr-01 13:53N 01°22' E 103°33'0 0.0
2018-Apr-01 12:14N 01°22' E 103°33'0 0.0
2018-Apr-01 11:59N 01°22' E 103°33'0 0.0
2018-Apr-01 11:05N 01°22' E 103°33'0 0.0
2018-Apr-01 10:57N 01°22' E 103°33'1 2.4
2018-Apr-01 10:29N 01°21' E 103°33'5 9.8
2018-Apr-01 10:00N 01°16' E 103°33'5 8.2
2018-Apr-01 09:26N 01°12' E 103°36'511.7
2018-Apr-01 08:59N 01°11' E 103°41'611.2
2018-Apr-01 08:29N 01°09' E 103°46'611.6
2018-Apr-01 07:59N 01°12' E 103°51'1111.6
2018-Apr-01 07:02N 01°16' E 104°01'111.3
2018-Apr-01 06:58N 01°16' E 104°02'811.5
2018-Apr-01 06:17N 01°17' E 104°10'  
2018-Mar-25 14:05N 23°14' E 117°34'114.6
2018-Mar-25 14:00N 23°15' E 117°36'714.7
2018-Mar-25 13:30N 23°18' E 117°42'814.7
2018-Mar-25 12:57N 23°22' E 117°50'714.9
2018-Mar-25 12:28N 23°26' E 117°57'1014.9
2018-Mar-25 11:48N 23°32' E 118°06'3915.0
2018-Mar-25 09:11N 23°54' E 118°41'415.0
2018-Mar-25 08:57N 23°57' E 118°44'  
Track history (hours):
 
Tides and Currents Weather Stations Pressure Air Temp Water Temp Dewpoint Dewpoint Depression Visibility Wind Speed Wind Dir Waves Ship Positions

CSAV Lonquen

Last reported at 2018-Apr-03 05:46 UTC. Time now 2018-Apr-26 17:25 UTC.
Position N 01°14' E 103°25'.
Warning: this ship's position is 23 days out of date.

Length 261 m; draft 12.3 m.

Type: Ship (hazmat cat D). MMSI: 636018108.

Date/timePositionNaut miles runAvg speedWind from/ knotsBaromVisibWave heightAir tempDewpointWater temp
2018-Apr-03 05:46N 01°14' E 103°25'415.2
2018-Apr-03 05:30N 01°13' E 103°29'714.6
2018-Apr-03 05:00N 01°12' E 103°36'5 9.7
2018-Apr-03 04:31N 01°13' E 103°41'612.4
2018-Apr-03 04:00N 01°15' E 103°46'1 2.3
2018-Apr-03 03:30N 01°16' E 103°47'0 0.0
2018-Apr-03 02:58N 01°16' E 103°47'0 0.0
2018-Apr-03 02:28N 01°16' E 103°47'0 0.0
2018-Apr-03 01:58N 01°16' E 103°47'0 0.0
2018-Apr-03 01:28N 01°16' E 103°47'0 0.0
2018-Apr-03 00:52N 01°16' E 103°47'0 0.0
2018-Apr-03 00:28N 01°16' E 103°47'0 0.0
2018-Apr-02 23:58N 01°16' E 103°47'0 0.0
2018-Apr-02 23:25N 01°16' E 103°47'0 0.0
2018-Apr-02 22:58N 01°16' E 103°47'0 0.0
2018-Apr-02 22:28N 01°16' E 103°47'0 0.0
2018-Apr-02 21:58N 01°16' E 103°47'0 0.0
2018-Apr-02 21:28N 01°16' E 103°47'0 0.0
2018-Apr-02 20:58N 01°16' E 103°47'0 0.0
2018-Apr-02 20:28N 01°16' E 103°47'0 0.0
2018-Apr-02 19:58N 01°16' E 103°47'0 0.0
2018-Apr-02 19:28N 01°16' E 103°47'0 0.0
2018-Apr-02 18:58N 01°16' E 103°47'0 0.0
2018-Apr-02 18:28N 01°16' E 103°47'0 0.0
2018-Apr-02 17:58N 01°16' E 103°47'0 0.0
2018-Apr-02 17:28N 01°16' E 103°47'0 0.1
2018-Apr-02 17:00N 01°16' E 103°48'1 1.3
2018-Apr-02 16:30N 01°15' E 103°47'2 4.9
2018-Apr-02 16:00N 01°15' E 103°45'4 7.6
2018-Apr-02 15:30N 01°13' E 103°42'1 1.9
2018-Apr-02 15:00N 01°12' E 103°41'0 0.0
2018-Apr-02 14:30N 01°12' E 103°41'0 0.1
2018-Apr-02 13:54N 01°12' E 103°41'0 0.1
2018-Apr-02 13:30N 01°12' E 103°41'0 0.1
2018-Apr-02 13:00N 01°12' E 103°41'0 0.0
2018-Apr-02 12:30N 01°12' E 103°41'0 0.1
2018-Apr-02 12:00N 01°12' E 103°41'0 0.1
2018-Apr-02 11:30N 01°12' E 103°41'0 0.1
2018-Apr-02 11:00N 01°12' E 103°41'0 0.1
2018-Apr-02 10:30N 01°12' E 103°41'0 0.2
2018-Apr-02 10:00N 01°12' E 103°41'0 0.2
2018-Apr-02 09:30N 01°12' E 103°41'0 0.2
2018-Apr-02 08:57N 01°12' E 103°41'0 0.0
2018-Apr-02 08:30N 01°12' E 103°41'0 0.0
2018-Apr-02 07:57N 01°12' E 103°41'0 0.1
2018-Apr-02 07:30N 01°12' E 103°41'0 0.0
2018-Apr-02 06:57N 01°12' E 103°41'0 0.3
2018-Apr-02 06:30N 01°12' E 103°41'4 7.7
2018-Apr-02 06:00N 01°12' E 103°37'3 6.7
2018-Apr-02 05:30N 01°13' E 103°34'4 8.3
2018-Apr-02 04:59N 01°14' E 103°30'1 1.6
2018-Apr-02 04:30N 01°15' E 103°30'2 4.2
2018-Apr-02 03:59N 01°15' E 103°32'4 8.7
2018-Apr-02 03:31N 01°19' E 103°33'3 5.1
2018-Apr-02 03:01N 01°22' E 103°33'0 0.2
2018-Apr-02 02:05N 01°22' E 103°33'0 0.0
2018-Apr-02 01:44N 01°22' E 103°33'0 0.0
2018-Apr-02 01:23N 01°22' E 103°33'0 0.0
2018-Apr-02 00:53N 01°22' E 103°33'0 0.0
2018-Apr-02 00:20N 01°22' E 103°33'0 0.0
2018-Apr-01 23:59N 01°22' E 103°33'0 0.0
2018-Apr-01 23:11N 01°22' E 103°33'0 0.0
2018-Apr-01 22:26N 01°22' E 103°33'0 0.0
2018-Apr-01 21:17N 01°22' E 103°33'0 0.0
2018-Apr-01 17:50N 01°22' E 103°33'0 0.0
2018-Apr-01 17:20N 01°22' E 103°33'0 0.0
2018-Apr-01 14:35N 01°22' E 103°33'0 0.0
2018-Apr-01 14:14N 01°22' E 103°33'0 0.0
2018-Apr-01 13:53N 01°22' E 103°33'0 0.0
2018-Apr-01 12:14N 01°22' E 103°33'0 0.0
2018-Apr-01 11:59N 01°22' E 103°33'0 0.0
2018-Apr-01 11:05N 01°22' E 103°33'0 0.0
2018-Apr-01 10:57N 01°22' E 103°33'1 2.4
2018-Apr-01 10:29N 01°21' E 103°33'5 9.8
2018-Apr-01 10:00N 01°16' E 103°33'5 8.2
2018-Apr-01 09:26N 01°12' E 103°36'511.7
2018-Apr-01 08:59N 01°11' E 103°41'611.2
2018-Apr-01 08:29N 01°09' E 103°46'611.6
2018-Apr-01 07:59N 01°12' E 103°51'1111.6
2018-Apr-01 07:02N 01°16' E 104°01'111.3
2018-Apr-01 06:58N 01°16' E 104°02'811.5
2018-Apr-01 06:17N 01°17' E 104°10'  
2018-Mar-25 14:05N 23°14' E 117°34'114.6
2018-Mar-25 14:00N 23°15' E 117°36'714.7
2018-Mar-25 13:30N 23°18' E 117°42'814.7
2018-Mar-25 12:57N 23°22' E 117°50'714.9
2018-Mar-25 12:28N 23°26' E 117°57'1014.9
2018-Mar-25 11:48N 23°32' E 118°06'3915.0
2018-Mar-25 09:11N 23°54' E 118°41'415.0
2018-Mar-25 08:57N 23°57' E 118°44'  

Dump ship's entire track history